sensor_id;sensor_type;location;lat;lon;timestamp;temperature;humidity
11818;DHT22;5966;52.402;5.322;2023-03-23T00:01:18;11.90;99.90
11818;DHT22;5966;52.402;5.322;2023-03-23T00:03:48;11.90;99.90
11818;DHT22;5966;52.402;5.322;2023-03-23T00:06:16;11.90;99.90
11818;DHT22;5966;52.402;5.322;2023-03-23T00:08:45;11.90;99.90
11818;DHT22;5966;52.402;5.322;2023-03-23T00:11:13;11.90;99.90
11818;DHT22;5966;52.402;5.322;2023-03-23T00:13:41;11.90;99.90
11818;DHT22;5966;52.402;5.322;2023-03-23T00:16:09;12.00;99.90
11818;DHT22;5966;52.402;5.322;2023-03-23T00:18:43;11.90;99.90
11818;DHT22;5966;52.402;5.322;2023-03-23T00:21:12;12.00;99.90
11818;DHT22;5966;52.402;5.322;2023-03-23T00:23:39;12.00;99.90
11818;DHT22;5966;52.402;5.322;2023-03-23T00:26:11;12.00;99.90
11818;DHT22;5966;52.402;5.322;2023-03-23T00:28:39;12.00;99.90
11818;DHT22;5966;52.402;5.322;2023-03-23T00:31:08;11.90;99.90
11818;DHT22;5966;52.402;5.322;2023-03-23T00:33:37;11.90;99.90
11818;DHT22;5966;52.402;5.322;2023-03-23T00:36:07;11.90;99.90
11818;DHT22;5966;52.402;5.322;2023-03-23T00:38:37;12.00;99.90
11818;DHT22;5966;52.402;5.322;2023-03-23T00:41:05;12.00;99.90
11818;DHT22;5966;52.402;5.322;2023-03-23T00:43:33;12.00;99.90
11818;DHT22;5966;52.402;5.322;2023-03-23T00:46:01;12.00;99.90
11818;DHT22;5966;52.402;5.322;2023-03-23T00:48:34;12.00;99.90
11818;DHT22;5966;52.402;5.322;2023-03-23T00:51:02;12.00;99.90
11818;DHT22;5966;52.402;5.322;2023-03-23T00:53:31;12.00;99.90
11818;DHT22;5966;52.402;5.322;2023-03-23T00:55:59;12.00;99.90
11818;DHT22;5966;52.402;5.322;2023-03-23T00:58:26;12.10;99.90
11818;DHT22;5966;52.402;5.322;2023-03-23T01:00:53;12.10;99.90
11818;DHT22;5966;52.402;5.322;2023-03-23T01:03:22;12.10;99.90
11818;DHT22;5966;52.402;5.322;2023-03-23T01:05:51;12.10;99.90
11818;DHT22;5966;52.402;5.322;2023-03-23T01:08:19;12.10;99.90
11818;DHT22;5966;52.402;5.322;2023-03-23T01:10:47;12.10;99.90
11818;DHT22;5966;52.402;5.322;2023-03-23T01:13:15;12.10;99.90
11818;DHT22;5966;52.402;5.322;2023-03-23T01:15:42;12.10;99.90
11818;DHT22;5966;52.402;5.322;2023-03-23T01:18:10;12.10;99.90
11818;DHT22;5966;52.402;5.322;2023-03-23T01:20:37;12.10;99.90
11818;DHT22;5966;52.402;5.322;2023-03-23T01:23:04;12.10;99.90
11818;DHT22;5966;52.402;5.322;2023-03-23T01:25:35;12.10;99.90
11818;DHT22;5966;52.402;5.322;2023-03-23T01:28:03;12.10;99.90
11818;DHT22;5966;52.402;5.322;2023-03-23T01:30:31;12.10;99.90
11818;DHT22;5966;52.402;5.322;2023-03-23T01:32:58;12.10;99.90
11818;DHT22;5966;52.402;5.322;2023-03-23T01:35:25;12.10;99.90
11818;DHT22;5966;52.402;5.322;2023-03-23T01:37:52;12.20;99.90
11818;DHT22;5966;52.402;5.322;2023-03-23T01:40:18;12.20;99.90
11818;DHT22;5966;52.402;5.322;2023-03-23T01:42:45;12.20;99.90
11818;DHT22;5966;52.402;5.322;2023-03-23T01:45:25;12.20;99.90
11818;DHT22;5966;52.402;5.322;2023-03-23T01:48:07;12.10;99.90
11818;DHT22;5966;52.402;5.322;2023-03-23T01:50:40;12.20;99.90
11818;DHT22;5966;52.402;5.322;2023-03-23T01:53:11;12.20;99.90
11818;DHT22;5966;52.402;5.322;2023-03-23T01:55:39;12.20;99.90
11818;DHT22;5966;52.402;5.322;2023-03-23T01:58:08;12.20;99.90
11818;DHT22;5966;52.402;5.322;2023-03-23T02:00:36;12.20;99.90
11818;DHT22;5966;52.402;5.322;2023-03-23T02:03:07;12.20;99.90
11818;DHT22;5966;52.402;5.322;2023-03-23T02:05:39;12.20;99.90
11818;DHT22;5966;52.402;5.322;2023-03-23T02:08:08;12.20;99.90
11818;DHT22;5966;52.402;5.322;2023-03-23T02:10:37;12.20;99.90
11818;DHT22;5966;52.402;5.322;2023-03-23T02:13:07;12.20;99.90
11818;DHT22;5966;52.402;5.322;2023-03-23T02:15:43;12.20;99.90
11818;DHT22;5966;52.402;5.322;2023-03-23T02:18:20;12.20;99.90
11818;DHT22;5966;52.402;5.322;2023-03-23T02:24:13;12.20;99.90
11818;DHT22;5966;52.402;5.322;2023-03-23T02:26:50;12.20;99.90
11818;DHT22;5966;52.402;5.322;2023-03-23T02:29:37;12.20;99.90
11818;DHT22;5966;52.402;5.322;2023-03-23T02:32:21;12.20;99.90
11818;DHT22;5966;52.402;5.322;2023-03-23T02:34:51;12.20;99.90
11818;DHT22;5966;52.402;5.322;2023-03-23T02:37:22;12.30;99.90
11818;DHT22;5966;52.402;5.322;2023-03-23T02:39:52;12.30;99.90
11818;DHT22;5966;52.402;5.322;2023-03-23T02:42:24;12.30;99.90
11818;DHT22;5966;52.402;5.322;2023-03-23T02:44:53;12.20;99.90
11818;DHT22;5966;52.402;5.322;2023-03-23T02:47:24;12.20;99.90
11818;DHT22;5966;52.402;5.322;2023-03-23T02:49:54;12.20;99.90
11818;DHT22;5966;52.402;5.322;2023-03-23T02:52:24;12.20;99.90
11818;DHT22;5966;52.402;5.322;2023-03-23T02:54:53;12.30;99.90
11818;DHT22;5966;52.402;5.322;2023-03-23T02:57:20;12.30;99.90
11818;DHT22;5966;52.402;5.322;2023-03-23T02:59:48;12.30;99.90
11818;DHT22;5966;52.402;5.322;2023-03-23T03:02:17;12.30;99.90
11818;DHT22;5966;52.402;5.322;2023-03-23T03:04:51;12.30;99.90
11818;DHT22;5966;52.402;5.322;2023-03-23T03:07:32;12.30;99.90
11818;DHT22;5966;52.402;5.322;2023-03-23T03:10:05;12.30;99.90
11818;DHT22;5966;52.402;5.322;2023-03-23T03:12:40;12.30;99.90
11818;DHT22;5966;52.402;5.322;2023-03-23T03:15:17;12.30;99.90
11818;DHT22;5966;52.402;5.322;2023-03-23T03:17:53;12.30;99.90
11818;DHT22;5966;52.402;5.322;2023-03-23T03:20:21;12.30;99.90
11818;DHT22;5966;52.402;5.322;2023-03-23T03:22:53;12.30;99.90
11818;DHT22;5966;52.402;5.322;2023-03-23T03:25:20;12.40;99.90
11818;DHT22;5966;52.402;5.322;2023-03-23T03:27:48;12.40;99.90
11818;DHT22;5966;52.402;5.322;2023-03-23T03:30:20;12.30;99.90
11818;DHT22;5966;52.402;5.322;2023-03-23T03:32:51;12.30;99.90
11818;DHT22;5966;52.402;5.322;2023-03-23T03:35:19;12.30;99.90
11818;DHT22;5966;52.402;5.322;2023-03-23T03:37:47;12.30;99.90
11818;DHT22;5966;52.402;5.322;2023-03-23T03:40:17;12.20;99.90
11818;DHT22;5966;52.402;5.322;2023-03-23T03:42:45;12.10;99.90
11818;DHT22;5966;52.402;5.322;2023-03-23T03:45:14;12.10;99.90
11818;DHT22;5966;52.402;5.322;2023-03-23T03:47:41;12.00;99.90
11818;DHT22;5966;52.402;5.322;2023-03-23T03:50:08;12.10;99.90
11818;DHT22;5966;52.402;5.322;2023-03-23T03:52:36;12.00;99.90
11818;DHT22;5966;52.402;5.322;2023-03-23T03:55:04;12.00;99.90
11818;DHT22;5966;52.402;5.322;2023-03-23T03:57:34;12.00;99.90
11818;DHT22;5966;52.402;5.322;2023-03-23T04:00:01;12.00;99.90
11818;DHT22;5966;52.402;5.322;2023-03-23T04:02:38;12.00;99.90
11818;DHT22;5966;52.402;5.322;2023-03-23T04:05:06;12.00;99.90
11818;DHT22;5966;52.402;5.322;2023-03-23T04:07:34;12.00;99.90
11818;DHT22;5966;52.402;5.322;2023-03-23T04:10:03;11.80;99.90
11818;DHT22;5966;52.402;5.322;2023-03-23T04:12:32;11.70;99.90
11818;DHT22;5966;52.402;5.322;2023-03-23T04:14:59;11.60;99.90
11818;DHT22;5966;52.402;5.322;2023-03-23T04:17:26;11.60;99.90
11818;DHT22;5966;52.402;5.322;2023-03-23T04:19:53;11.50;99.90
11818;DHT22;5966;52.402;5.322;2023-03-23T04:22:22;11.50;99.90
11818;DHT22;5966;52.402;5.322;2023-03-23T04:24:57;11.50;99.90
11818;DHT22;5966;52.402;5.322;2023-03-23T04:27:26;11.50;99.90
11818;DHT22;5966;52.402;5.322;2023-03-23T04:29:56;11.50;99.90
11818;DHT22;5966;52.402;5.322;2023-03-23T04:32:24;11.50;99.90
11818;DHT22;5966;52.402;5.322;2023-03-23T04:34:55;11.50;99.90
11818;DHT22;5966;52.402;5.322;2023-03-23T04:37:23;11.40;99.90
11818;DHT22;5966;52.402;5.322;2023-03-23T04:39:55;11.40;99.90
11818;DHT22;5966;52.402;5.322;2023-03-23T04:42:27;11.40;99.90
11818;DHT22;5966;52.402;5.322;2023-03-23T04:44:56;11.40;99.90
11818;DHT22;5966;52.402;5.322;2023-03-23T04:47:24;11.40;99.90
11818;DHT22;5966;52.402;5.322;2023-03-23T04:49:55;11.30;99.90
11818;DHT22;5966;52.402;5.322;2023-03-23T04:52:23;11.40;99.90
11818;DHT22;5966;52.402;5.322;2023-03-23T04:54:50;11.30;99.90
11818;DHT22;5966;52.402;5.322;2023-03-23T04:57:17;11.30;99.90
11818;DHT22;5966;52.402;5.322;2023-03-23T04:59:44;11.30;99.90
11818;DHT22;5966;52.402;5.322;2023-03-23T05:02:13;11.20;99.90
11818;DHT22;5966;52.402;5.322;2023-03-23T05:04:43;11.20;99.90
11818;DHT22;5966;52.402;5.322;2023-03-23T05:07:10;11.20;99.90
11818;DHT22;5966;52.402;5.322;2023-03-23T05:09:37;11.20;99.90
11818;DHT22;5966;52.402;5.322;2023-03-23T05:12:05;11.20;99.90
11818;DHT22;5966;52.402;5.322;2023-03-23T05:14:32;11.20;99.90
11818;DHT22;5966;52.402;5.322;2023-03-23T05:16:59;11.20;99.90
11818;DHT22;5966;52.402;5.322;2023-03-23T05:19:27;11.20;99.90
11818;DHT22;5966;52.402;5.322;2023-03-23T05:21:56;11.10;99.90
11818;DHT22;5966;52.402;5.322;2023-03-23T05:24:28;11.20;99.90
11818;DHT22;5966;52.402;5.322;2023-03-23T05:26:57;11.20;99.90
11818;DHT22;5966;52.402;5.322;2023-03-23T05:29:24;11.20;99.90
11818;DHT22;5966;52.402;5.322;2023-03-23T05:31:51;11.20;99.90
11818;DHT22;5966;52.402;5.322;2023-03-23T05:34:21;11.20;99.90
11818;DHT22;5966;52.402;5.322;2023-03-23T05:36:49;11.20;99.90
11818;DHT22;5966;52.402;5.322;2023-03-23T05:39:18;11.20;99.90
11818;DHT22;5966;52.402;5.322;2023-03-23T05:41:45;11.20;99.90
11818;DHT22;5966;52.402;5.322;2023-03-23T05:44:12;11.20;99.90
11818;DHT22;5966;52.402;5.322;2023-03-23T05:46:40;11.20;99.90
11818;DHT22;5966;52.402;5.322;2023-03-23T05:49:07;11.20;99.90
11818;DHT22;5966;52.402;5.322;2023-03-23T05:51:34;11.20;99.90
11818;DHT22;5966;52.402;5.322;2023-03-23T05:54:03;11.20;99.90
11818;DHT22;5966;52.402;5.322;2023-03-23T05:56:30;11.30;99.90
11818;DHT22;5966;52.402;5.322;2023-03-23T05:58:57;11.30;99.90
11818;DHT22;5966;52.402;5.322;2023-03-23T06:01:25;11.30;99.90
11818;DHT22;5966;52.402;5.322;2023-03-23T06:03:52;11.30;99.90
11818;DHT22;5966;52.402;5.322;2023-03-23T06:06:19;11.30;99.90
11818;DHT22;5966;52.402;5.322;2023-03-23T06:08:46;11.30;99.90
11818;DHT22;5966;52.402;5.322;2023-03-23T06:11:17;11.30;99.90
11818;DHT22;5966;52.402;5.322;2023-03-23T06:13:44;11.30;99.90
11818;DHT22;5966;52.402;5.322;2023-03-23T06:16:11;11.30;99.90
11818;DHT22;5966;52.402;5.322;2023-03-23T06:18:38;11.30;99.90
11818;DHT22;5966;52.402;5.322;2023-03-23T06:21:06;11.30;99.90
11818;DHT22;5966;52.402;5.322;2023-03-23T06:23:33;11.30;99.90
11818;DHT22;5966;52.402;5.322;2023-03-23T06:26:02;11.30;99.90
11818;DHT22;5966;52.402;5.322;2023-03-23T06:28:32;11.30;99.90
11818;DHT22;5966;52.402;5.322;2023-03-23T06:30:59;11.30;99.90
11818;DHT22;5966;52.402;5.322;2023-03-23T06:33:27;11.30;99.90
11818;DHT22;5966;52.402;5.322;2023-03-23T06:35:54;11.30;99.90
11818;DHT22;5966;52.402;5.322;2023-03-23T06:38:21;11.30;99.90
11818;DHT22;5966;52.402;5.322;2023-03-23T06:40:51;11.30;99.90
11818;DHT22;5966;52.402;5.322;2023-03-23T06:43:17;11.30;99.90
11818;DHT22;5966;52.402;5.322;2023-03-23T06:45:46;11.30;99.90
11818;DHT22;5966;52.402;5.322;2023-03-23T06:48:13;11.30;99.90
11818;DHT22;5966;52.402;5.322;2023-03-23T06:50:42;11.30;99.90
11818;DHT22;5966;52.402;5.322;2023-03-23T06:53:09;11.30;99.90
11818;DHT22;5966;52.402;5.322;2023-03-23T06:55:36;11.40;99.90
11818;DHT22;5966;52.402;5.322;2023-03-23T06:58:03;11.40;99.90
11818;DHT22;5966;52.402;5.322;2023-03-23T07:00:31;11.40;99.90
11818;DHT22;5966;52.402;5.322;2023-03-23T07:02:59;11.50;99.90
11818;DHT22;5966;52.402;5.322;2023-03-23T07:05:27;11.50;99.90
11818;DHT22;5966;52.402;5.322;2023-03-23T07:07:55;11.50;99.90
11818;DHT22;5966;52.402;5.322;2023-03-23T07:10:21;11.50;99.90
11818;DHT22;5966;52.402;5.322;2023-03-23T07:12:49;11.50;99.90
11818;DHT22;5966;52.402;5.322;2023-03-23T07:15:16;11.50;99.90
11818;DHT22;5966;52.402;5.322;2023-03-23T07:17:43;11.50;99.90
11818;DHT22;5966;52.402;5.322;2023-03-23T07:20:12;11.50;99.90
11818;DHT22;5966;52.402;5.322;2023-03-23T07:22:40;11.50;99.90
11818;DHT22;5966;52.402;5.322;2023-03-23T07:25:07;11.60;99.90
11818;DHT22;5966;52.402;5.322;2023-03-23T07:27:34;11.60;99.90
11818;DHT22;5966;52.402;5.322;2023-03-23T07:30:01;11.60;99.90
11818;DHT22;5966;52.402;5.322;2023-03-23T07:32:28;11.60;99.90
11818;DHT22;5966;52.402;5.322;2023-03-23T07:34:55;11.60;99.90
11818;DHT22;5966;52.402;5.322;2023-03-23T07:37:24;11.60;99.90
11818;DHT22;5966;52.402;5.322;2023-03-23T07:39:51;11.60;99.90
11818;DHT22;5966;52.402;5.322;2023-03-23T07:42:18;11.60;99.90
11818;DHT22;5966;52.402;5.322;2023-03-23T07:44:45;11.60;99.90
11818;DHT22;5966;52.402;5.322;2023-03-23T07:47:12;11.60;99.90
11818;DHT22;5966;52.402;5.322;2023-03-23T07:49:39;11.50;99.90
11818;DHT22;5966;52.402;5.322;2023-03-23T07:52:06;11.60;99.90
11818;DHT22;5966;52.402;5.322;2023-03-23T07:54:34;11.60;99.90
11818;DHT22;5966;52.402;5.322;2023-03-23T07:57:01;11.60;99.90
11818;DHT22;5966;52.402;5.322;2023-03-23T07:59:28;11.60;99.90
11818;DHT22;5966;52.402;5.322;2023-03-23T08:01:56;11.60;99.90
11818;DHT22;5966;52.402;5.322;2023-03-23T08:04:23;11.60;99.90
11818;DHT22;5966;52.402;5.322;2023-03-23T08:06:52;11.60;99.90
11818;DHT22;5966;52.402;5.322;2023-03-23T08:09:19;11.60;99.90
11818;DHT22;5966;52.402;5.322;2023-03-23T08:11:48;11.60;99.90
11818;DHT22;5966;52.402;5.322;2023-03-23T08:14:15;11.60;99.90
11818;DHT22;5966;52.402;5.322;2023-03-23T08:16:42;11.60;99.90
11818;DHT22;5966;52.402;5.322;2023-03-23T08:19:09;11.60;99.90
11818;DHT22;5966;52.402;5.322;2023-03-23T08:21:36;11.60;99.90
11818;DHT22;5966;52.402;5.322;2023-03-23T08:24:03;11.70;99.90
11818;DHT22;5966;52.402;5.322;2023-03-23T08:26:30;11.80;99.90
11818;DHT22;5966;52.402;5.322;2023-03-23T08:28:59;11.80;99.90
11818;DHT22;5966;52.402;5.322;2023-03-23T08:31:25;11.80;99.90
11818;DHT22;5966;52.402;5.322;2023-03-23T08:33:52;11.90;99.90
11818;DHT22;5966;52.402;5.322;2023-03-23T08:36:22;11.90;99.90
11818;DHT22;5966;52.402;5.322;2023-03-23T08:38:49;11.90;99.90
11818;DHT22;5966;52.402;5.322;2023-03-23T08:41:17;11.90;99.90
11818;DHT22;5966;52.402;5.322;2023-03-23T08:43:44;11.90;99.90
11818;DHT22;5966;52.402;5.322;2023-03-23T08:46:13;11.90;99.90
11818;DHT22;5966;52.402;5.322;2023-03-23T08:48:40;11.90;99.90
11818;DHT22;5966;52.402;5.322;2023-03-23T08:51:09;11.90;99.90
11818;DHT22;5966;52.402;5.322;2023-03-23T08:53:36;11.80;99.90
11818;DHT22;5966;52.402;5.322;2023-03-23T08:56:04;11.90;99.90
11818;DHT22;5966;52.402;5.322;2023-03-23T08:58:32;12.00;99.90
11818;DHT22;5966;52.402;5.322;2023-03-23T09:00:59;12.00;99.90
11818;DHT22;5966;52.402;5.322;2023-03-23T09:03:28;12.10;99.90
11818;DHT22;5966;52.402;5.322;2023-03-23T09:05:58;12.20;99.90
11818;DHT22;5966;52.402;5.322;2023-03-23T09:08:26;12.40;99.90
11818;DHT22;5966;52.402;5.322;2023-03-23T09:10:54;12.50;99.90
11818;DHT22;5966;52.402;5.322;2023-03-23T09:13:22;12.50;99.90
11818;DHT22;5966;52.402;5.322;2023-03-23T09:15:49;12.50;99.90
11818;DHT22;5966;52.402;5.322;2023-03-23T09:18:16;12.50;99.90
11818;DHT22;5966;52.402;5.322;2023-03-23T09:20:45;12.50;99.90
11818;DHT22;5966;52.402;5.322;2023-03-23T09:23:12;12.60;99.90
11818;DHT22;5966;52.402;5.322;2023-03-23T09:25:40;12.60;99.90
11818;DHT22;5966;52.402;5.322;2023-03-23T09:28:08;12.60;99.90
11818;DHT22;5966;52.402;5.322;2023-03-23T09:30:36;12.70;99.90
11818;DHT22;5966;52.402;5.322;2023-03-23T09:33:05;12.80;99.90
11818;DHT22;5966;52.402;5.322;2023-03-23T09:35:34;12.90;99.90
11818;DHT22;5966;52.402;5.322;2023-03-23T09:38:03;12.90;99.90
11818;DHT22;5966;52.402;5.322;2023-03-23T09:40:35;12.90;99.90
11818;DHT22;5966;52.402;5.322;2023-03-23T09:43:17;12.90;99.90
11818;DHT22;5966;52.402;5.322;2023-03-23T09:45:54;12.90;99.90
11818;DHT22;5966;52.402;5.322;2023-03-23T09:48:32;12.90;99.90
11818;DHT22;5966;52.402;5.322;2023-03-23T09:51:03;13.00;99.90
11818;DHT22;5966;52.402;5.322;2023-03-23T09:53:37;13.00;99.90
11818;DHT22;5966;52.402;5.322;2023-03-23T09:56:10;13.10;99.90
11818;DHT22;5966;52.402;5.322;2023-03-23T09:58:44;13.10;99.90
11818;DHT22;5966;52.402;5.322;2023-03-23T10:01:16;13.10;99.90
11818;DHT22;5966;52.402;5.322;2023-03-23T10:03:45;13.10;99.90
11818;DHT22;5966;52.402;5.322;2023-03-23T10:06:14;13.20;99.90
11818;DHT22;5966;52.402;5.322;2023-03-23T10:08:46;13.30;99.90
11818;DHT22;5966;52.402;5.322;2023-03-23T10:11:19;13.30;99.90
11818;DHT22;5966;52.402;5.322;2023-03-23T10:14:09;13.30;99.90
11818;DHT22;5966;52.402;5.322;2023-03-23T10:16:43;13.40;99.90
11818;DHT22;5966;52.402;5.322;2023-03-23T10:19:20;13.40;99.90
11818;DHT22;5966;52.402;5.322;2023-03-23T10:21:50;13.40;99.90
11818;DHT22;5966;52.402;5.322;2023-03-23T10:24:23;13.50;99.90
11818;DHT22;5966;52.402;5.322;2023-03-23T10:26:58;13.50;99.90
11818;DHT22;5966;52.402;5.322;2023-03-23T10:29:29;13.60;99.90
11818;DHT22;5966;52.402;5.322;2023-03-23T10:32:01;13.60;99.90
11818;DHT22;5966;52.402;5.322;2023-03-23T10:34:33;13.70;99.90
11818;DHT22;5966;52.402;5.322;2023-03-23T10:37:05;13.70;99.90
11818;DHT22;5966;52.402;5.322;2023-03-23T10:39:44;13.80;99.90
11818;DHT22;5966;52.402;5.322;2023-03-23T10:42:11;13.80;99.90
11818;DHT22;5966;52.402;5.322;2023-03-23T10:44:38;13.90;99.90
11818;DHT22;5966;52.402;5.322;2023-03-23T10:47:07;14.00;99.90
11818;DHT22;5966;52.402;5.322;2023-03-23T10:49:40;14.00;99.90
11818;DHT22;5966;52.402;5.322;2023-03-23T10:52:19;14.00;99.90
11818;DHT22;5966;52.402;5.322;2023-03-23T10:54:52;14.00;99.90
11818;DHT22;5966;52.402;5.322;2023-03-23T10:57:22;14.00;99.90
11818;DHT22;5966;52.402;5.322;2023-03-23T10:59:51;14.00;99.90
11818;DHT22;5966;52.402;5.322;2023-03-23T11:02:19;14.10;99.90
11818;DHT22;5966;52.402;5.322;2023-03-23T11:04:55;14.10;99.90
11818;DHT22;5966;52.402;5.322;2023-03-23T11:07:28;14.10;99.90
11818;DHT22;5966;52.402;5.322;2023-03-23T11:10:03;14.00;99.90
11818;DHT22;5966;52.402;5.322;2023-03-23T11:12:34;13.90;99.90
11818;DHT22;5966;52.402;5.322;2023-03-23T11:15:25;13.80;99.90
11818;DHT22;5966;52.402;5.322;2023-03-23T11:17:58;13.70;99.90
11818;DHT22;5966;52.402;5.322;2023-03-23T11:20:26;13.80;99.90
11818;DHT22;5966;52.402;5.322;2023-03-23T11:22:54;13.80;99.90
11818;DHT22;5966;52.402;5.322;2023-03-23T11:25:23;13.90;99.90
11818;DHT22;5966;52.402;5.322;2023-03-23T11:27:52;14.00;99.90
11818;DHT22;5966;52.402;5.322;2023-03-23T11:30:24;14.00;99.90
11818;DHT22;5966;52.402;5.322;2023-03-23T11:32:54;14.00;99.90
11818;DHT22;5966;52.402;5.322;2023-03-23T11:35:26;14.00;99.90
11818;DHT22;5966;52.402;5.322;2023-03-23T11:37:55;14.20;99.90
11818;DHT22;5966;52.402;5.322;2023-03-23T11:40:25;14.20;99.90
11818;DHT22;5966;52.402;5.322;2023-03-23T11:42:58;14.30;99.90
11818;DHT22;5966;52.402;5.322;2023-03-23T11:45:32;14.30;99.90
11818;DHT22;5966;52.402;5.322;2023-03-23T11:48:09;14.30;99.90
11818;DHT22;5966;52.402;5.322;2023-03-23T11:50:47;14.40;99.90
11818;DHT22;5966;52.402;5.322;2023-03-23T11:53:22;14.40;99.90
11818;DHT22;5966;52.402;5.322;2023-03-23T11:55:58;14.30;99.90
11818;DHT22;5966;52.402;5.322;2023-03-23T11:58:26;14.30;99.90
11818;DHT22;5966;52.402;5.322;2023-03-23T12:01:00;14.30;99.90
11818;DHT22;5966;52.402;5.322;2023-03-23T12:06:34;14.40;99.90
11818;DHT22;5966;52.402;5.322;2023-03-23T12:09:11;14.30;99.90
11818;DHT22;5966;52.402;5.322;2023-03-23T12:11:52;14.20;99.90
11818;DHT22;5966;52.402;5.322;2023-03-23T12:14:32;14.20;99.90
11818;DHT22;5966;52.402;5.322;2023-03-23T12:17:10;14.20;99.90
11818;DHT22;5966;52.402;5.322;2023-03-23T12:19:43;14.10;99.90
11818;DHT22;5966;52.402;5.322;2023-03-23T12:22:24;14.10;99.90
11818;DHT22;5966;52.402;5.322;2023-03-23T12:25:04;14.10;99.90
11818;DHT22;5966;52.402;5.322;2023-03-23T12:27:42;14.10;99.90
11818;DHT22;5966;52.402;5.322;2023-03-23T12:30:21;14.10;99.90
11818;DHT22;5966;52.402;5.322;2023-03-23T12:33:19;14.10;99.90
11818;DHT22;5966;52.402;5.322;2023-03-23T12:35:55;14.10;99.90
11818;DHT22;5966;52.402;5.322;2023-03-23T12:38:53;14.10;99.90
11818;DHT22;5966;52.402;5.322;2023-03-23T12:41:27;13.90;99.90
11818;DHT22;5966;52.402;5.322;2023-03-23T12:43:59;13.90;99.90
11818;DHT22;5966;52.402;5.322;2023-03-23T12:46:47;13.90;99.90
11818;DHT22;5966;52.402;5.322;2023-03-23T12:49:20;13.90;99.90
11818;DHT22;5966;52.402;5.322;2023-03-23T12:51:52;13.90;99.90
11818;DHT22;5966;52.402;5.322;2023-03-23T12:54:26;13.90;99.90
11818;DHT22;5966;52.402;5.322;2023-03-23T12:56:58;13.90;99.90
11818;DHT22;5966;52.402;5.322;2023-03-23T12:59:33;13.90;99.90
11818;DHT22;5966;52.402;5.322;2023-03-23T13:02:06;13.80;99.90
11818;DHT22;5966;52.402;5.322;2023-03-23T13:04:40;13.80;99.90
11818;DHT22;5966;52.402;5.322;2023-03-23T13:07:14;14.00;99.90
11818;DHT22;5966;52.402;5.322;2023-03-23T13:09:50;14.10;99.90
11818;DHT22;5966;52.402;5.322;2023-03-23T13:12:19;14.10;99.90
11818;DHT22;5966;52.402;5.322;2023-03-23T13:14:56;14.10;99.90
11818;DHT22;5966;52.402;5.322;2023-03-23T13:17:33;14.10;99.90
11818;DHT22;5966;52.402;5.322;2023-03-23T13:20:15;14.00;99.90
11818;DHT22;5966;52.402;5.322;2023-03-23T13:22:50;13.90;99.90
11818;DHT22;5966;52.402;5.322;2023-03-23T13:25:29;13.80;99.90
11818;DHT22;5966;52.402;5.322;2023-03-23T13:27:58;13.70;99.90
11818;DHT22;5966;52.402;5.322;2023-03-23T13:30:28;13.70;99.90
11818;DHT22;5966;52.402;5.322;2023-03-23T13:33:03;13.80;99.90
11818;DHT22;5966;52.402;5.322;2023-03-23T13:35:35;13.80;99.90
11818;DHT22;5966;52.402;5.322;2023-03-23T13:38:13;13.90;99.90
11818;DHT22;5966;52.402;5.322;2023-03-23T13:40:45;14.10;99.90
11818;DHT22;5966;52.402;5.322;2023-03-23T13:43:12;14.30;99.90
11818;DHT22;5966;52.402;5.322;2023-03-23T13:45:46;14.40;99.90
11818;DHT22;5966;52.402;5.322;2023-03-23T13:48:22;14.40;99.90
11818;DHT22;5966;52.402;5.322;2023-03-23T13:50:53;14.50;99.90
11818;DHT22;5966;52.402;5.322;2023-03-23T13:53:24;14.70;99.90
11818;DHT22;5966;52.402;5.322;2023-03-23T13:56:06;14.80;99.90
11818;DHT22;5966;52.402;5.322;2023-03-23T13:58:45;14.80;99.90
11818;DHT22;5966;52.402;5.322;2023-03-23T14:01:16;14.80;99.90
11818;DHT22;5966;52.402;5.322;2023-03-23T14:03:47;14.80;99.90
11818;DHT22;5966;52.402;5.322;2023-03-23T14:06:18;14.70;99.90
11818;DHT22;5966;52.402;5.322;2023-03-23T14:08:48;14.60;99.90
11818;DHT22;5966;52.402;5.322;2023-03-23T14:11:19;14.60;99.90
11818;DHT22;5966;52.402;5.322;2023-03-23T14:13:58;14.60;99.90
11818;DHT22;5966;52.402;5.322;2023-03-23T14:16:37;14.60;99.90
11818;DHT22;5966;52.402;5.322;2023-03-23T14:19:14;14.60;99.90
11818;DHT22;5966;52.402;5.322;2023-03-23T14:21:48;14.70;99.90
11818;DHT22;5966;52.402;5.322;2023-03-23T14:24:17;14.70;99.90
11818;DHT22;5966;52.402;5.322;2023-03-23T14:26:45;14.80;99.90
11818;DHT22;5966;52.402;5.322;2023-03-23T14:29:13;14.90;99.90
11818;DHT22;5966;52.402;5.322;2023-03-23T14:31:41;15.00;99.90
11818;DHT22;5966;52.402;5.322;2023-03-23T14:34:16;15.00;99.90
11818;DHT22;5966;52.402;5.322;2023-03-23T14:36:45;15.10;99.90
11818;DHT22;5966;52.402;5.322;2023-03-23T14:39:18;15.10;99.90
11818;DHT22;5966;52.402;5.322;2023-03-23T14:41:46;15.10;99.90
11818;DHT22;5966;52.402;5.322;2023-03-23T14:44:16;15.10;99.90
11818;DHT22;5966;52.402;5.322;2023-03-23T14:46:45;15.10;99.90
11818;DHT22;5966;52.402;5.322;2023-03-23T14:49:14;15.10;99.90
11818;DHT22;5966;52.402;5.322;2023-03-23T14:51:50;15.10;99.90
11818;DHT22;5966;52.402;5.322;2023-03-23T14:54:21;15.10;99.90
11818;DHT22;5966;52.402;5.322;2023-03-23T14:56:49;15.10;99.90
11818;DHT22;5966;52.402;5.322;2023-03-23T14:59:16;15.20;99.90
11818;DHT22;5966;52.402;5.322;2023-03-23T15:01:45;15.30;99.90
11818;DHT22;5966;52.402;5.322;2023-03-23T15:04:15;15.40;99.90
11818;DHT22;5966;52.402;5.322;2023-03-23T15:06:44;15.40;99.90
11818;DHT22;5966;52.402;5.322;2023-03-23T15:09:15;15.40;99.90
11818;DHT22;5966;52.402;5.322;2023-03-23T15:11:43;15.50;99.90
11818;DHT22;5966;52.402;5.322;2023-03-23T15:14:15;15.40;99.90
11818;DHT22;5966;52.402;5.322;2023-03-23T15:16:47;15.30;99.90
11818;DHT22;5966;52.402;5.322;2023-03-23T15:19:18;15.30;99.90
11818;DHT22;5966;52.402;5.322;2023-03-23T15:21:51;15.30;99.90
11818;DHT22;5966;52.402;5.322;2023-03-23T15:24:24;15.30;99.90
11818;DHT22;5966;52.402;5.322;2023-03-23T15:26:52;15.30;99.90
11818;DHT22;5966;52.402;5.322;2023-03-23T15:29:21;15.50;99.90
11818;DHT22;5966;52.402;5.322;2023-03-23T15:31:52;15.80;99.90
11818;DHT22;5966;52.402;5.322;2023-03-23T15:34:27;16.10;99.90
11818;DHT22;5966;52.402;5.322;2023-03-23T15:36:57;16.20;99.90
11818;DHT22;5966;52.402;5.322;2023-03-23T15:39:25;16.40;99.90
11818;DHT22;5966;52.402;5.322;2023-03-23T15:41:53;16.70;99.90
11818;DHT22;5966;52.402;5.322;2023-03-23T15:44:28;16.60;99.90
11818;DHT22;5966;52.402;5.322;2023-03-23T15:47:18;16.20;99.90
11818;DHT22;5966;52.402;5.322;2023-03-23T15:49:46;16.00;99.90
11818;DHT22;5966;52.402;5.322;2023-03-23T15:52:14;16.10;99.90
11818;DHT22;5966;52.402;5.322;2023-03-23T15:54:48;16.30;99.90
11818;DHT22;5966;52.402;5.322;2023-03-23T15:57:15;16.30;99.90
11818;DHT22;5966;52.402;5.322;2023-03-23T15:59:42;16.10;99.90
11818;DHT22;5966;52.402;5.322;2023-03-23T16:02:19;15.90;99.90
11818;DHT22;5966;52.402;5.322;2023-03-23T16:04:48;15.70;99.90
11818;DHT22;5966;52.402;5.322;2023-03-23T16:07:18;15.50;99.90
11818;DHT22;5966;52.402;5.322;2023-03-23T16:09:47;15.40;99.90
11818;DHT22;5966;52.402;5.322;2023-03-23T16:12:15;15.30;99.90